Time;durP1;ratioP1;P1;durP2;ratioP2;P2;SDS_P1;SDS_P2;PMS_P1;PMS_P2;Temp;Humidity;BMP_temperature;BMP_pressure;BME280_temperature;BME280_humidity;BME280_pressure;Samples;Min_cycle;Max_cycle;Signal;HPM_P1;HPM_P2
2022/10/01 00:02:22;;;;;;;11.43;10.15;;;;;;;10.10;100.00;100253.56;5337981;27;20437;-84
2022/10/01 00:04:53;;;;;;;13.65;10.93;;;;;;;10.11;100.00;100232.09;5323609;27;20040;-84
2022/10/01 00:07:25;;;;;;;10.65;9.38;;;;;;;10.10;100.00;100241.09;5339639;27;20032;-84
2022/10/01 00:09:56;;;;;;;11.82;9.60;;;;;;;10.19;100.00;100220.69;5321227;27;21159;-84
2022/10/01 00:12:27;;;;;;;11.27;10.23;;;;;;;10.16;100.00;100228.97;5339592;27;20058;-84
2022/10/01 00:14:59;;;;;;;12.07;10.88;;;;;;;10.14;100.00;100214.97;5338268;27;20038;-84
2022/10/01 00:17:30;;;;;;;11.77;10.57;;;;;;;10.09;100.00;100202.09;5321284;27;20080;-84
2022/10/01 00:20:03;;;;;;;12.85;10.70;;;;;;;10.09;100.00;100198.59;5338063;27;20125;-84
2022/10/01 00:22:35;;;;;;;12.57;11.27;;;;;;;10.03;100.00;100203.56;5337499;27;20031;-85
2022/10/01 00:25:07;;;;;;;14.88;10.88;;;;;;;10.10;100.00;100194.94;5341254;27;20401;-84
2022/10/01 00:27:38;;;;;;;12.45;10.07;;;;;;;10.13;100.00;100199.97;5337371;27;20077;-84
2022/10/01 00:30:10;;;;;;;11.10;9.98;;;;;;;10.13;100.00;100199.97;5338396;27;20035;-84
2022/10/01 00:32:42;;;;;;;10.65;9.65;;;;;;;10.15;100.00;100193.50;5336986;27;20146;-82
2022/10/01 00:35:13;;;;;;;13.38;10.05;;;;;;;10.11;100.00;100175.31;5337843;27;20016;-83
2022/10/01 00:37:47;;;;;;;11.45;10.27;;;;;;;10.20;100.00;100164.56;5331761;27;20390;-83
2022/10/01 00:40:20;;;;;;;11.15;9.55;;;;;;;10.16;100.00;100154.34;5320804;27;20120;-83
2022/10/01 00:42:52;;;;;;;10.15;9.15;;;;;;;10.18;100.00;100190.50;5338341;27;20039;-83
2022/10/01 00:45:23;;;;;;;13.40;9.88;;;;;;;10.17;100.00;100174.69;5339308;27;21529;-83
2022/10/01 00:47:58;;;;;;;9.88;8.98;;;;;;;10.22;100.00;100189.22;5338547;27;20374;-83
2022/10/01 00:50:33;;;;;;;11.00;9.90;;;;;;;10.21;100.00;100198.19;5338916;27;21701;-83
2022/10/01 00:53:11;;;;;;;10.48;9.48;;;;;;;10.20;100.00;100195.69;5336009;27;20083;-83
2022/10/01 00:55:47;;;;;;;10.80;9.40;;;;;;;10.17;100.00;100194.19;5338935;27;20357;-83
2022/10/01 00:58:19;;;;;;;11.00;9.60;;;;;;;10.23;100.00;100198.03;5318979;27;20512;-83
2022/10/01 01:00:54;;;;;;;10.45;8.63;;;;;;;10.30;100.00;100183.09;5339888;27;20023;-84
2022/10/01 01:03:26;;;;;;;10.25;9.10;;;;;;;10.28;100.00;100200.25;5336311;27;20035;-84
2022/10/01 01:05:58;;;;;;;10.20;9.20;;;;;;;10.26;100.00;100195.06;5338619;27;20051;-84
2022/10/01 01:08:29;;;;;;;11.98;9.43;;;;;;;10.26;100.00;100202.25;5336860;27;20032;-84
2022/10/01 01:11:21;;;;;;;11.52;9.60;;;;;;;10.27;100.00;100201.22;5338837;27;20024;-83
2022/10/01 01:14:05;;;;;;;10.70;9.48;;;;;;;10.21;100.00;100152.06;5336345;27;20132;-84
2022/10/01 01:16:48;;;;;;;13.23;11.35;;;;;;;10.20;100.00;100145.03;5339211;27;20032;-84
2022/10/01 01:20:00;;;;;;;11.95;10.75;;;;;;;10.21;100.00;100149.41;5338890;27;20482;-84
2022/10/01 01:22:36;;;;;;;11.75;10.65;;;;;;;10.17;100.00;100124.88;5337321;27;20035;-84
2022/10/01 01:25:10;;;;;;;12.07;10.85;;;;;;;10.17;100.00;100097.41;5334925;27;20382;-84
2022/10/01 01:27:49;;;;;;;11.13;10.00;;;;;;;10.18;100.00;100064.41;5338984;27;20044;-84
2022/10/01 01:30:20;;;;;;;10.13;8.77;;;;;;;10.15;100.00;100041.59;5339123;27;20036;-84
2022/10/01 01:33:02;;;;;;;10.30;9.30;;;;;;;10.19;100.00;100031.47;5337494;27;20045;-84
2022/10/01 01:35:42;;;;;;;9.07;8.23;;;;;;;10.14;100.00;100015.94;5338108;27;20086;-85
2022/10/01 01:38:19;;;;;;;10.05;7.68;;;;;;;10.16;100.00;99957.97;5336179;27;20036;-84
2022/10/01 01:40:54;;;;;;;9.98;8.88;;;;;;;10.06;100.00;99985.75;5335008;27;20032;-85
2022/10/01 01:43:32;;;;;;;9.88;8.98;;;;;;;10.11;100.00;100087.38;5337039;27;20476;-82
2022/10/01 01:46:06;;;;;;;10.35;9.35;;;;;;;10.14;100.00;100103.03;5336068;27;20044;-84
2022/10/01 01:48:40;;;;;;;11.43;9.80;;;;;;;10.10;100.00;100094.53;5336434;27;20036;-85
2022/10/01 01:51:33;;;;;;;12.05;9.80;;;;;;;10.12;100.00;100076.56;5340541;27;20076;-85
2022/10/01 01:54:05;;;;;;;10.27;9.27;;;;;;;10.14;100.00;100068.41;5308682;27;20048;-84
2022/10/01 01:56:37;;;;;;;10.32;9.38;;;;;;;10.13;100.00;100072.91;5339761;27;20134;-84
2022/10/01 01:59:09;;;;;;;10.50;9.50;;;;;;;10.13;100.00;100064.06;5331906;27;20059;-85
2022/10/01 02:01:43;;;;;;;10.25;9.13;;;;;;;10.16;100.00;100080.56;5318749;27;20178;-84
2022/10/01 02:04:22;;;;;;;11.63;10.30;;;;;;;10.18;100.00;100081.22;5319759;27;20031;-86
2022/10/01 02:07:09;;;;;;;11.40;10.30;;;;;;;10.15;100.00;100072.72;5333688;27;20621;-84
2022/10/01 02:09:47;;;;;;;12.75;11.45;;;;;;;10.11;100.00;100069.53;5337912;27;20070;-84
2022/10/01 02:12:53;;;;;;;12.65;9.93;;;;;;;10.18;100.00;100064.41;5335934;27;20027;-85
2022/10/01 02:15:41;;;;;;;9.23;8.32;;;;;;;10.10;100.00;100059.88;5338252;27;20026;-84
2022/10/01 02:18:27;;;;;;;9.70;8.75;;;;;;;10.23;100.00;100107.41;5316691;27;20024;-85
2022/10/01 02:21:18;;;;;;;9.00;8.10;;;;;;;10.19;100.00;100066.09;5318241;27;20143;-84
2022/10/01 02:23:57;;;;;;;11.52;9.00;;;;;;;10.20;100.00;100073.94;5337030;27;20035;-85
2022/10/01 02:26:31;;;;;;;9.85;8.85;;;;;;;10.20;100.00;100055.28;5340200;27;20027;-85
2022/10/01 02:29:07;;;;;;;9.23;8.30;;;;;;;10.23;100.00;100054.13;5342533;27;20435;-85
2022/10/01 02:31:40;;;;;;;8.60;7.68;;;;;;;10.17;100.00;100031.59;5342709;27;20020;-84
2022/10/01 02:34:14;;;;;;;8.45;7.20;;;;;;;10.25;100.00;100032.63;5339256;27;20046;-85
2022/10/01 02:36:48;;;;;;;6.78;6.28;;;;;;;10.27;100.00;100036.81;5337602;27;20032;-84
2022/10/01 02:39:22;;;;;;;6.40;5.80;;;;;;;10.29;100.00;100026.84;5336435;27;20051;-84
2022/10/01 02:41:55;;;;;;;6.70;5.72;;;;;;;10.29;100.00;100041.97;5336747;27;20130;-84
2022/10/01 02:44:36;;;;;;;6.45;5.80;;;;;;;10.34;100.00;100042.38;5339024;27;20032;-84
2022/10/01 02:47:18;;;;;;;5.75;5.25;;;;;;;10.33;100.00;100020.22;5340800;27;20044;-84
2022/10/01 02:49:50;;;;;;;6.13;5.47;;;;;;;10.33;100.00;100036.22;5340395;27;20039;-85
2022/10/01 02:52:33;;;;;;;5.82;5.32;;;;;;;10.32;100.00;100039.03;5339453;27;20042;-84
2022/10/01 02:55:17;;;;;;;7.70;5.47;;;;;;;10.36;100.00;100027.91;5316459;27;20024;-84
2022/10/01 02:57:49;;;;;;;5.90;5.40;;;;;;;10.38;100.00;100012.56;5337897;27;20429;-84
2022/10/01 03:00:20;;;;;;;5.25;4.75;;;;;;;10.35;100.00;100012.06;5338587;27;20027;-84
2022/10/01 03:02:51;;;;;;;5.30;4.72;;;;;;;10.45;100.00;100033.22;5320631;27;20098;-84
2022/10/01 03:05:23;;;;;;;5.47;4.57;;;;;;;10.36;100.00;100019.03;5340761;27;20393;-85
2022/10/01 03:07:54;;;;;;;5.00;4.50;;;;;;;10.40;100.00;100034.56;5338431;27;20028;-85
2022/10/01 03:10:25;;;;;;;6.78;4.07;;;;;;;10.46;100.00;100022.41;5340489;27;20020;-85
2022/10/01 03:12:59;;;;;;;4.40;4.00;;;;;;;10.44;100.00;100008.41;5340675;27;20604;-84
2022/10/01 03:15:30;;;;;;;4.20;3.80;;;;;;;10.51;100.00;100029.94;5327879;27;20469;-84
2022/10/01 03:18:01;;;;;;;4.30;3.83;;;;;;;10.51;100.00;100011.28;5340513;27;20031;-83
2022/10/01 03:20:32;;;;;;;3.80;3.50;;;;;;;10.47;100.00;100009.94;5335697;27;20028;-84
2022/10/01 03:23:04;;;;;;;4.60;3.05;;;;;;;10.52;100.00;100018.28;5339376;27;20456;-84
2022/10/01 03:25:35;;;;;;;3.63;3.13;;;;;;;10.49;100.00;100011.44;5337314;27;24098;-84
2022/10/01 03:28:06;;;;;;;4.13;3.05;;;;;;;10.51;100.00;100006.78;5342951;27;20028;-84
2022/10/01 03:30:38;;;;;;;3.50;3.20;;;;;;;10.57;100.00;100016.81;5336799;27;20038;-84
2022/10/01 03:33:09;;;;;;;3.13;2.70;;;;;;;10.53;100.00;100023.44;5338576;27;20040;-84
2022/10/01 03:35:40;;;;;;;4.03;2.83;;;;;;;10.61;100.00;100009.31;5334006;27;20030;-84
2022/10/01 03:38:12;;;;;;;2.60;2.40;;;;;;;10.56;100.00;100007.13;5340590;27;20366;-84
2022/10/01 03:40:43;;;;;;;2.40;2.20;;;;;;;10.67;100.00;100007.81;5322807;27;20049;-84
2022/10/01 03:43:15;;;;;;;2.17;1.98;;;;;;;10.67;100.00;100039.81;5323106;27;20023;-84
2022/10/01 03:45:46;;;;;;;2.97;2.20;;;;;;;10.67;100.00;100008.63;5336795;27;20042;-84
2022/10/01 03:48:18;;;;;;;2.10;2.00;;;;;;;10.68;100.00;100004.16;5338304;27;20084;-84
2022/10/01 03:50:58;;;;;;;3.17;2.40;;;;;;;10.71;100.00;100015.34;5318266;27;20028;-84
2022/10/01 03:53:30;;;;;;;2.00;1.80;;;;;;;10.76;100.00;100030.81;5322332;27;20119;-84
2022/10/01 03:56:01;;;;;;;2.00;1.90;;;;;;;10.78;100.00;100021.69;5337365;27;20423;-84
2022/10/01 03:58:33;;;;;;;2.50;1.60;;;;;;;10.82;100.00;100014.19;5322245;27;20023;-84
2022/10/01 04:01:04;;;;;;;1.80;1.70;;;;;;;10.87;100.00;100022.53;5320604;27;20464;-84
2022/10/01 04:03:35;;;;;;;1.85;1.58;;;;;;;10.81;100.00;100022.34;5336514;27;20370;-84
2022/10/01 04:06:06;;;;;;;1.88;1.70;;;;;;;10.93;100.00;100026.38;5318662;27;20404;-84
2022/10/01 04:08:38;;;;;;;2.03;1.50;;;;;;;10.91;100.00;100023.88;5335940;27;20028;-84
2022/10/01 04:11:11;;;;;;;1.88;1.77;;;;;;;10.97;100.00;100035.69;5338303;27;20222;-84
2022/10/01 04:13:42;;;;;;;3.40;1.35;;;;;;;10.97;100.00;100030.38;5335863;27;20047;-83
2022/10/01 04:16:14;;;;;;;1.67;1.55;;;;;;;11.00;100.00;100043.38;5339305;27;20024;-84
2022/10/01 04:18:46;;;;;;;1.25;1.15;;;;;;;11.03;100.00;100037.72;5320662;27;20591;-84
2022/10/01 04:21:17;;;;;;;2.20;1.20;;;;;;;11.02;100.00;100044.06;5335265;27;20031;-84
2022/10/01 04:23:49;;;;;;;1.52;1.20;;;;;;;11.06;100.00;100047.22;5338271;27;20096;-83
2022/10/01 04:26:20;;;;;;;1.38;1.27;;;;;;;11.11;100.00;100044.91;5334743;27;20032;-84
2022/10/01 04:28:52;;;;;;;1.45;1.35;;;;;;;11.06;100.00;100031.22;5339632;27;20028;-83
2022/10/01 04:31:23;;;;;;;1.60;1.30;;;;;;;11.11;100.00;100043.06;5334919;27;20036;-84
2022/10/01 04:33:56;;;;;;;2.88;1.40;;;;;;;11.16;100.00;100053.25;5340206;27;20115;-84
2022/10/01 04:36:27;;;;;;;1.40;1.30;;;;;;;11.18;100.00;100050.41;5337210;27;20024;-83
2022/10/01 04:38:59;;;;;;;1.98;1.45;;;;;;;11.21;100.00;100048.25;5340987;27;20473;-84
2022/10/01 04:41:30;;;;;;;1.60;1.50;;;;;;;11.24;100.00;100049.75;5336828;27;20052;-84
2022/10/01 04:44:02;;;;;;;1.92;1.73;;;;;;;11.26;100.00;100059.25;5340044;27;20050;-84
2022/10/01 04:46:36;;;;;;;2.00;1.90;;;;;;;11.28;100.00;100067.94;5338941;27;20022;-84
2022/10/01 04:49:07;;;;;;;3.35;2.30;;;;;;;11.30;100.00;100052.56;5339389;27;20725;-84
2022/10/01 04:51:38;;;;;;;2.42;2.15;;;;;;;11.30;100.00;100049.91;5337431;27;20035;-84
2022/10/01 04:54:10;;;;;;;2.00;1.80;;;;;;;11.37;100.00;100063.44;5339344;27;20027;-84
2022/10/01 04:56:41;;;;;;;2.33;2.13;;;;;;;11.39;100.00;100063.28;5338259;27;20038;-84
2022/10/01 04:59:12;;;;;;;3.50;2.22;;;;;;;11.37;100.00;100055.44;5340804;27;20036;-84
2022/10/01 05:01:44;;;;;;;2.88;2.47;;;;;;;11.38;100.00;100057.09;5338733;27;20016;-84
2022/10/01 05:04:16;;;;;;;2.33;2.15;;;;;;;11.46;100.00;100069.59;5318771;27;20094;-84
2022/10/01 05:06:47;;;;;;;4.43;2.95;;;;;;;11.44;100.00;100066.28;5336071;27;20474;-84
2022/10/01 05:09:19;;;;;;;4.38;3.03;;;;;;;11.46;100.00;100077.63;5321220;27;20028;-84
2022/10/01 05:11:50;;;;;;;4.70;3.00;;;;;;;11.40;100.00;100071.13;5319060;27;20038;-84
2022/10/01 05:14:22;;;;;;;4.00;3.58;;;;;;;11.49;100.00;100074.63;5336265;27;20058;-84
2022/10/01 05:16:53;;;;;;;5.05;3.38;;;;;;;11.52;100.00;100071.63;5339150;27;20032;-84
2022/10/01 05:19:27;;;;;;;4.10;3.22;;;;;;;11.63;100.00;100083.81;5337391;27;20055;-84
2022/10/01 05:21:59;;;;;;;3.95;3.60;;;;;;;11.62;100.00;100093.63;5337059;27;20525;-85
2022/10/01 05:24:30;;;;;;;6.35;3.90;;;;;;;11.63;100.00;100091.81;5339143;27;20164;-85
2022/10/01 05:27:01;;;;;;;4.72;3.92;;;;;;;11.65;100.00;100090.63;5339818;27;20118;-85
2022/10/01 05:29:33;;;;;;;5.95;4.15;;;;;;;11.73;100.00;100104.00;5323110;27;20437;-85
2022/10/01 05:32:05;;;;;;;5.40;4.63;;;;;;;11.76;100.00;100110.81;5340851;27;20024;-85
2022/10/01 05:34:37;;;;;;;5.72;4.15;;;;;;;11.73;100.00;100114.69;5341350;27;20019;-85
2022/10/01 05:37:10;;;;;;;5.50;4.85;;;;;;;11.77;100.00;100109.84;5323955;27;20031;-85
2022/10/01 05:39:42;;;;;;;5.25;4.82;;;;;;;11.79;100.00;100117.69;5339654;27;20453;-85
2022/10/01 05:42:13;;;;;;;6.45;5.45;;;;;;;11.78;100.00;100118.69;5342192;27;20020;-85
2022/10/01 05:44:45;;;;;;;5.22;4.72;;;;;;;11.84;100.00;100116.16;5341072;27;20111;-85
2022/10/01 05:47:16;;;;;;;5.80;5.18;;;;;;;11.83;100.00;100121.69;5321148;27;20392;-85
2022/10/01 05:49:48;;;;;;;6.63;5.88;;;;;;;11.82;100.00;100122.69;5340672;27;20045;-85
2022/10/01 05:52:19;;;;;;;6.50;5.93;;;;;;;11.81;100.00;100126.38;5320184;27;20027;-85
2022/10/01 05:54:50;;;;;;;6.90;6.20;;;;;;;11.78;100.00;100129.38;5338172;27;20073;-84
2022/10/01 05:57:22;;;;;;;7.25;6.55;;;;;;;11.81;100.00;100126.38;5336759;27;20039;-85
2022/10/01 05:59:53;;;;;;;7.63;5.97;;;;;;;11.82;100.00;100138.72;5323512;27;20413;-85
2022/10/01 06:02:24;;;;;;;8.80;7.18;;;;;;;11.83;100.00;100135.91;5341159;27;20020;-85
2022/10/01 06:04:55;;;;;;;7.78;6.70;;;;;;;11.76;100.00;100136.72;5342601;27;20042;-85
2022/10/01 06:07:30;;;;;;;8.02;7.32;;;;;;;11.80;100.00;100133.56;5322629;27;20149;-85
2022/10/01 06:10:01;;;;;;;8.90;7.53;;;;;;;11.77;100.00;100133.06;5339253;27;20035;-85
2022/10/01 06:12:33;;;;;;;9.32;7.90;;;;;;;11.69;100.00;100136.53;5338920;27;20032;-85
2022/10/01 06:15:05;;;;;;;12.48;8.23;;;;;;;11.73;100.00;100136.06;5342020;27;20030;-85
2022/10/01 06:17:42;;;;;;;9.60;8.57;;;;;;;11.65;100.00;100129.88;5339704;27;20059;-85
2022/10/01 06:20:17;;;;;;;11.07;9.98;;;;;;;11.72;100.00;100138.88;5319035;27;20374;-85
2022/10/01 06:22:54;;;;;;;11.10;8.73;;;;;;;11.73;100.00;100152.09;5338312;27;20028;-85
2022/10/01 06:25:31;;;;;;;10.23;8.98;;;;;;;11.81;100.00;100153.91;5337389;27;20032;-85
2022/10/01 06:28:05;;;;;;;11.65;10.45;;;;;;;11.84;100.00;100156.25;5338671;27;20052;-85
2022/10/01 06:30:38;;;;;;;11.82;10.55;;;;;;;11.91;100.00;100148.44;5339119;27;20030;-84
2022/10/01 06:33:12;;;;;;;12.20;10.90;;;;;;;11.89;100.00;100145.06;5338203;27;20036;-85
2022/10/01 06:35:46;;;;;;;13.30;11.15;;;;;;;11.95;100.00;100160.44;5323179;27;20051;-85
2022/10/01 06:38:19;;;;;;;15.52;12.20;;;;;;;12.07;100.00;100160.94;5339583;27;20028;-85
2022/10/01 06:40:52;;;;;;;13.20;11.50;;;;;;;12.07;100.00;100155.59;5316214;27;20032;-85
2022/10/01 06:43:26;;;;;;;14.98;11.82;;;;;;;12.14;100.00;100167.28;5339296;27;20548;-85
2022/10/01 06:46:01;;;;;;;13.88;11.65;;;;;;;12.21;100.00;100173.63;5333989;27;20551;-85
2022/10/01 06:48:35;;;;;;;13.43;11.60;;;;;;;12.24;100.00;100167.13;5337780;27;20038;-85
2022/10/01 06:51:07;;;;;;;14.82;11.43;;;;;;;12.31;100.00;100173.47;5335926;27;20075;-84
2022/10/01 06:53:38;;;;;;;15.15;11.38;;;;;;;12.42;100.00;100174.94;5339536;27;20032;-85
2022/10/01 06:56:10;;;;;;;16.08;11.23;;;;;;;12.67;100.00;100186.41;5339950;27;20035;-85
2022/10/01 06:58:42;;;;;;;15.20;13.55;;;;;;;12.93;100.00;100177.28;5339181;27;20452;-85
2022/10/01 07:01:15;;;;;;;13.25;11.15;;;;;;;12.90;100.00;100172.25;5338347;27;20038;-84
2022/10/01 07:03:47;;;;;;;14.27;11.77;;;;;;;13.00;100.00;100183.59;5336729;27;20051;-85
2022/10/01 07:06:18;;;;;;;12.77;11.57;;;;;;;13.07;100.00;100171.19;5318059;27;20123;-84
2022/10/01 07:08:49;;;;;;;15.05;11.68;;;;;;;13.25;100.00;100186.97;5334472;27;20034;-84
2022/10/01 07:11:21;;;;;;;13.57;11.07;;;;;;;13.37;100.00;100199.00;5336634;27;20028;-84
2022/10/01 07:13:52;;;;;;;13.00;10.75;;;;;;;13.54;100.00;100191.69;5338875;27;20397;-84
2022/10/01 07:16:23;;;;;;;13.15;9.63;;;;;;;13.39;100.00;100190.78;5339060;27;20373;-84
2022/10/01 07:18:55;;;;;;;12.23;9.30;;;;;;;13.38;100.00;100197.16;5322118;27;20032;-84
2022/10/01 07:21:26;;;;;;;8.73;7.82;;;;;;;13.39;100.00;100204.19;5340246;27;20020;-85
2022/10/01 07:23:57;;;;;;;10.40;8.30;;;;;;;13.57;100.00;100210.09;5336001;27;20389;-84
2022/10/01 07:26:29;;;;;;;11.20;8.02;;;;;;;13.63;100.00;100197.00;5339076;27;20380;-85
2022/10/01 07:29:00;;;;;;;8.93;7.82;;;;;;;13.59;100.00;100200.03;5339374;27;20098;-85
2022/10/01 07:31:31;;;;;;;9.75;7.63;;;;;;;13.55;100.00;100217.50;5321022;27;20022;-85
2022/10/01 07:34:03;;;;;;;12.88;8.00;;;;;;;13.43;100.00;100225.09;5322149;27;20055;-85
2022/10/01 07:36:34;;;;;;;12.82;8.45;;;;;;;13.30;100.00;100221.28;5341712;27;20572;-84
2022/10/01 07:39:05;;;;;;;16.88;9.85;;;;;;;13.27;100.00;100232.34;5343696;27;20031;-85
2022/10/01 07:41:37;;;;;;;12.82;8.95;;;;;;;13.21;100.00;100236.56;5343180;27;20063;-85
2022/10/01 07:44:10;;;;;;;12.60;9.50;;;;;;;13.11;100.00;100234.06;5340637;27;20039;-85
2022/10/01 07:46:42;;;;;;;12.90;10.10;;;;;;;13.12;100.00;100251.00;5341820;27;20026;-85
2022/10/01 07:49:15;;;;;;;16.17;11.07;;;;;;;13.14;100.00;100244.44;5344065;27;20110;-84
2022/10/01 07:51:47;;;;;;;15.52;10.88;;;;;;;13.14;100.00;100252.47;5342927;27;20019;-85
2022/10/01 07:54:20;;;;;;;14.30;11.93;;;;;;;13.18;100.00;100269.88;5341131;27;20072;-84
2022/10/01 07:56:54;;;;;;;13.50;11.52;;;;;;;13.18;100.00;100271.72;5324546;27;20015;-84
2022/10/01 07:59:26;;;;;;;16.17;12.73;;;;;;;13.21;100.00;100279.41;5342088;27;20119;-84
2022/10/01 08:01:58;;;;;;;15.52;12.52;;;;;;;13.16;100.00;100279.91;5345137;27;20444;-84
2022/10/01 08:07:20;;;;;;;19.33;13.98;;;;;;;13.17;100.00;100276.22;5349858;27;20454;-84
2022/10/01 08:09:51;;;;;;;17.08;13.65;;;;;;;13.17;100.00;100265.53;5352124;27;20046;-85
2022/10/01 08:12:23;;;;;;;20.02;13.95;;;;;;;13.32;100.00;100288.94;5348811;27;20095;-85
2022/10/01 08:14:54;;;;;;;16.35;13.95;;;;;;;13.40;100.00;100287.03;5344534;27;20024;-85
2022/10/01 08:17:26;;;;;;;15.57;13.98;;;;;;;13.56;100.00;100299.53;5341054;27;20031;-85
2022/10/01 08:19:57;;;;;;;15.20;12.48;;;;;;;13.55;100.00;100292.50;5341610;27;20048;-85
2022/10/01 08:22:28;;;;;;;13.23;11.25;;;;;;;13.49;100.00;100295.06;5343186;27;20027;-85
2022/10/01 08:25:00;;;;;;;13.60;12.32;;;;;;;13.59;100.00;100299.19;5325151;27;20047;-85
2022/10/01 08:27:31;;;;;;;13.57;12.05;;;;;;;13.66;100.00;100314.56;5344713;27;20477;-85
2022/10/01 08:30:03;;;;;;;12.95;10.82;;;;;;;13.74;100.00;100317.19;5340241;27;20029;-85
2022/10/01 08:32:35;;;;;;;11.75;9.70;;;;;;;13.83;100.00;100310.75;5328570;27;20035;-85
2022/10/01 08:35:07;;;;;;;11.15;8.65;;;;;;;13.87;100.00;100324.69;5340703;27;20381;-85
2022/10/01 08:37:38;;;;;;;11.57;8.60;;;;;;;13.77;100.00;100322.22;5344219;27;20114;-86
2022/10/01 08:40:10;;;;;;;7.57;6.25;;;;;;;13.68;100.00;100324.09;5345224;27;20039;-86
2022/10/01 08:43:00;;;;;;;7.28;6.50;;;;;;;13.70;100.00;100329.28;5342438;27;20515;-85
2022/10/01 08:45:43;;;;;;;13.15;6.95;;;;;;;13.90;100.00;100321.63;5315511;27;20074;-85
2022/10/01 08:48:38;;;;;;;14.73;9.82;;;;;;;15.12;100.00;100322.47;5343512;27;20106;-85
2022/10/01 08:51:32;;;;;;;11.73;8.80;;;;;;;16.17;100.00;100320.44;5353064;27;20066;-85
2022/10/01 08:54:27;;;;;;;5.65;3.17;;;;;;;15.10;100.00;100335.25;5343188;27;20500;-85
2022/10/01 08:57:01;;;;;;;3.60;2.72;;;;;;;14.48;100.00;100322.03;5342548;27;20032;-85
2022/10/01 08:59:41;;;;;;;5.55;3.40;;;;;;;14.35;100.00;100334.22;5324181;27;20156;-85
2022/10/01 09:02:27;;;;;;;9.30;4.50;;;;;;;15.13;100.00;100334.06;5341108;27;20595;-85
2022/10/01 09:05:03;;;;;;;8.23;4.25;;;;;;;16.41;100.00;100338.06;5341876;27;20035;-85
2022/10/01 09:07:59;;;;;;;7.88;3.33;;;;;;;17.25;100.00;100339.16;5339627;27;20047;-85
2022/10/01 09:10:43;;;;;;;7.72;3.00;;;;;;;18.03;100.00;100359.63;5323540;27;20036;-85
2022/10/01 09:13:20;;;;;;;7.97;3.25;;;;;;;18.01;100.00;100340.94;5346824;27;20114;-85
2022/10/01 09:16:09;;;;;;;9.75;2.75;;;;;;;18.99;100.00;100336.91;5344230;27;20473;-85
2022/10/01 09:18:49;;;;;;;6.95;2.70;;;;;;;20.05;100.00;100338.41;5313946;27;20095;-85
2022/10/01 09:22:02;;;;;;;8.13;2.78;;;;;;;20.70;100.00;100326.50;5328129;27;20023;-85
2022/10/01 09:24:40;;;;;;;10.15;2.95;;;;;;;20.67;100.00;100337.78;5344940;27;20039;-86
2022/10/01 09:27:22;;;;;;;8.65;2.50;;;;;;;20.29;100.00;100341.38;5322385;27;20036;-85
2022/10/01 09:30:12;;;;;;;10.13;3.20;;;;;;;20.92;100.00;100337.78;5327709;27;20031;-85
2022/10/01 09:32:49;;;;;;;12.57;2.65;;;;;;;20.73;100.00;100350.47;5343097;27;20478;-85
2022/10/01 09:35:33;;;;;;;10.77;2.55;;;;;;;20.29;100.00;100350.34;5345826;27;20062;-85
2022/10/01 09:38:29;;;;;;;14.68;3.20;;;;;;;20.15;100.00;100349.59;5349814;27;20027;-84
2022/10/01 09:41:00;;;;;;;8.98;2.80;;;;;;;20.43;100.00;100351.06;5343636;27;20440;-85
2022/10/01 09:43:33;;;;;;;8.57;2.63;;;;;;;21.32;100.00;100349.06;5343667;27;20020;-85
2022/10/01 09:46:12;;;;;;;9.07;2.35;;;;;;;22.01;100.00;100362.44;5341297;27;20043;-85
2022/10/01 09:48:55;;;;;;;11.40;3.03;;;;;;;20.78;100.00;100339.78;5308453;27;20032;-85
2022/10/01 09:51:30;;;;;;;11.23;2.67;;;;;;;21.51;100.00;100344.50;5343345;27;20034;-85
2022/10/01 09:54:13;;;;;;;10.20;2.22;;;;;;;23.14;100.00;100340.84;5342321;27;20032;-84
2022/10/01 09:56:50;;;;;;;7.85;2.40;;;;;;;24.26;100.00;100348.78;5341595;27;20099;-85
2022/10/01 09:59:28;;;;;;;10.20;2.05;;;;;;;24.92;100.00;100357.28;5344808;27;20027;-85
2022/10/01 10:02:02;;;;;;;7.60;2.20;;;;;;;25.90;100.00;100362.16;5340093;27;20027;-84
2022/10/01 10:04:34;;;;;;;8.43;2.50;;;;;;;25.25;100.00;100355.63;5324254;27;20492;-84
2022/10/01 10:07:06;;;;;;;10.93;2.20;;;;;;;24.61;100.00;100356.78;5339712;27;20044;-84
2022/10/01 10:09:37;;;;;;;11.73;2.70;;;;;;;22.36;100.00;100371.81;5324998;27;20165;-83
2022/10/01 10:12:25;;;;;;;11.00;2.70;;;;;;;21.40;100.00;100363.38;5341833;27;20497;-84
2022/10/01 10:15:06;;;;;;;11.15;2.80;;;;;;;19.93;100.00;100375.31;5342557;27;20051;-84
2022/10/01 10:17:43;;;;;;;10.60;2.30;;;;;;;19.54;100.00;100371.69;5339558;27;20028;-83
2022/10/01 10:20:42;;;;;;;14.25;2.88;;;;;;;19.23;100.00;100379.47;5339185;27;20024;-83
2022/10/01 10:23:20;;;;;;;8.68;2.58;;;;;;;21.23;100.00;100382.09;5338571;27;20090;-84
2022/10/01 10:26:01;;;;;;;13.43;2.47;;;;;;;23.55;100.00;100393.41;5320217;27;20024;-84
2022/10/01 10:28:44;;;;;;;7.80;2.88;;;;;;;25.33;100.00;100389.81;5322636;27;20110;-84
2022/10/01 10:31:20;;;;;;;10.15;2.40;;;;;;;26.18;100.00;100404.03;5345015;27;20069;-85
2022/10/01 10:33:57;;;;;;;9.35;2.10;;;;;;;25.76;100.00;100405.41;5340238;27;20031;-84
2022/10/01 10:36:33;;;;;;;8.23;2.63;;;;;;;26.25;100.00;100398.38;5341081;27;20020;-85
2022/10/01 10:39:05;;;;;;;;;;;;;;;27.80;100.00;100412.13;5344417;27;20116;-84
2022/10/01 10:41:43;;;;;;;7.60;2.58;;;;;;;26.30;100.00;100417.56;5340031;27;19935;-84
2022/10/01 10:44:20;;;;;;;10.07;2.25;;;;;;;26.68;100.00;100413.81;5346911;27;20042;-84
2022/10/01 10:47:33;;;;;;;9.43;2.42;;;;;;;27.56;100.00;100409.84;5346393;27;20028;-85
2022/10/01 10:50:38;;;;;;;5.40;1.70;;;;;;;28.35;100.00;100426.28;5332877;27;20035;-84
2022/10/01 10:53:48;;;;;;;12.48;2.55;;;;;;;27.01;100.00;100438.44;5341528;27;20032;-84
2022/10/01 10:56:23;;;;;;;7.63;2.20;;;;;;;25.09;100.00;100423.56;5342106;27;20356;-84
2022/10/01 10:59:07;;;;;;;8.60;2.65;;;;;;;23.17;100.00;100429.28;5349720;27;20102;-84
2022/10/01 11:04:53;;;;;;;9.40;2.22;;;;;;;23.75;100.00;100449.38;5346543;27;20090;-86
2022/10/01 11:07:26;;;;;;;7.97;2.67;;;;;;;25.22;100.00;100451.59;5337070;27;20034;-85
2022/10/01 11:10:16;;;;;;;9.00;2.33;;;;;;;26.83;100.00;100456.09;5339823;27;20050;-85
2022/10/01 11:13:31;;;;;;;9.82;2.22;;;;;;;26.90;100.00;100470.38;5344879;27;20454;-85
2022/10/01 11:16:46;;;;;;;9.60;2.30;;;;;;;29.18;100.00;100475.53;5324849;27;20037;-85
2022/10/01 11:19:55;;;;;;;7.30;2.30;;;;;;;28.80;100.00;100472.19;5341525;27;20043;-85
2022/10/01 11:26:27;;;;;;;9.52;3.17;;;;;;;29.55;100.00;100471.63;5326336;27;20081;-84
2022/10/01 11:29:43;;;;;;;10.40;2.08;;;;;;;29.95;100.00;100478.13;5321252;27;20028;-84
2022/10/01 11:32:53;;;;;;;6.38;1.98;;;;;;;29.77;100.00;100490.56;5340094;27;20071;-84
2022/10/01 11:35:41;;;;;;;11.15;2.65;;;;;;;29.90;97.96;100499.31;5320178;27;20035;-85
2022/10/01 11:38:54;;;;;;;8.32;2.92;;;;;;;30.17;95.86;100496.16;5340114;27;20087;-84
2022/10/01 11:41:39;;;;;;;9.85;2.53;;;;;;;26.37;100.00;100478.31;5336349;27;20023;-84
2022/10/01 11:44:36;;;;;;;7.95;2.35;;;;;;;26.11;100.00;100475.28;5334201;27;20093;-84
2022/10/01 11:47:09;;;;;;;8.88;2.47;;;;;;;26.53;100.00;100487.50;5334340;27;20032;-84
2022/10/01 11:50:24;;;;;;;8.23;2.60;;;;;;;28.15;100.00;100510.13;5333798;27;20497;-84
2022/10/01 11:53:14;;;;;;;8.45;1.98;;;;;;;28.33;100.00;100488.81;5335564;27;20085;-83
2022/10/01 11:58:56;;;;;;;8.57;2.60;;;;;;;29.84;100.00;100514.16;5341057;27;20032;-83
2022/10/01 12:01:45;;;;;;;8.98;2.65;;;;;;;30.75;92.62;100501.13;5335121;27;20023;-84
2022/10/01 12:04:27;;;;;;;10.65;2.45;;;;;;;28.60;86.25;100513.34;5339182;27;20130;-84
2022/10/01 12:07:12;;;;;;;10.45;2.40;;;;;;;28.73;98.36;100533.94;5337922;27;20212;-83
2022/10/01 12:10:27;;;;;;;10.13;2.42;;;;;;;27.73;100.00;100535.63;5337925;27;20024;-83